createdAt,value
2023-01-12T00:01:35.726Z,95332.91
2023-01-12T00:04:04.079Z,95332.72
2023-01-12T00:06:33.254Z,95333.94
2023-01-12T00:09:03.439Z,95336.84
2023-01-12T00:11:31.212Z,95334.31
2023-01-12T00:13:59.335Z,95324.56
2023-01-12T00:16:37.820Z,95333.47
2023-01-12T00:19:10.900Z,95336.38
2023-01-12T00:21:55.511Z,95323.28
2023-01-12T00:24:24.631Z,95328.88
2023-01-12T00:26:52.712Z,95331.75
2023-01-12T00:29:20.719Z,95326.81
2023-01-12T00:31:48.391Z,95334.44
2023-01-12T00:34:16.857Z,95335.47
2023-01-12T00:36:46.793Z,95330.47
2023-01-12T00:39:14.818Z,95328.34
2023-01-12T00:42:00.767Z,95325.63
2023-01-12T00:44:46.006Z,95324.19
2023-01-12T00:47:14.635Z,95328.72
2023-01-12T00:49:42.501Z,95331.00
2023-01-12T00:52:18.252Z,95326.00
2023-01-12T00:54:53.045Z,95326.66
2023-01-12T00:57:20.605Z,95318.75
2023-01-12T00:59:48.218Z,95324.09
2023-01-12T01:02:16.094Z,95323.25
2023-01-12T01:04:44.007Z,95327.59
2023-01-12T01:07:16.041Z,95314.50
2023-01-12T01:09:44.232Z,95317.19
2023-01-12T01:12:11.827Z,95327.78
2023-01-12T01:14:39.450Z,95335.88
2023-01-12T01:17:07.153Z,95336.06
2023-01-12T01:19:34.860Z,95338.97
2023-01-12T01:22:02.434Z,95338.13
2023-01-12T01:24:31.494Z,95340.59
2023-01-12T01:26:59.106Z,95337.66
2023-01-12T01:29:26.741Z,95346.75
2023-01-12T01:31:55.675Z,95353.16
2023-01-12T01:34:23.707Z,95345.94
2023-01-12T01:36:51.301Z,95332.03
2023-01-12T01:39:18.916Z,95343.81
2023-01-12T01:41:48.402Z,95335.75
2023-01-12T01:44:50.166Z,95335.75
2023-01-12T01:47:26.115Z,95326.78
2023-01-12T01:49:55.900Z,95330.88
2023-01-12T01:52:26.141Z,95322.56
2023-01-12T01:54:55.786Z,95322.38
2023-01-12T01:57:25.530Z,95321.56
2023-01-12T01:59:55.057Z,95322.31
2023-01-12T02:02:23.842Z,95319.63
2023-01-12T02:04:51.508Z,95315.06
2023-01-12T02:07:19.113Z,95308.22
2023-01-12T02:09:46.894Z,95301.16
2023-01-12T02:12:32.628Z,95293.09
2023-01-12T02:15:19.448Z,95300.53
2023-01-12T02:17:57.134Z,95296.81
2023-01-12T02:20:42.444Z,95300.53
2023-01-12T02:23:42.347Z,95304.44
2023-01-12T02:26:37.997Z,95300.09
2023-01-12T02:29:25.391Z,95305.06
2023-01-12T02:32:01.635Z,95305.44
2023-01-12T02:34:35.470Z,95304.16
2023-01-12T02:37:10.420Z,95307.03
2023-01-12T02:39:43.857Z,95309.53
2023-01-12T02:42:43.181Z,95300.19
2023-01-12T02:45:21.060Z,95301.66
2023-01-12T02:47:54.670Z,95308.28
2023-01-12T02:50:26.937Z,95302.88
2023-01-12T02:52:58.748Z,95301.59
2023-01-12T02:55:27.645Z,95303.47
2023-01-12T02:57:56.237Z,95303.28
2023-01-12T03:00:23.976Z,95296.88
2023-01-12T03:02:53.033Z,95289.63
2023-01-12T03:05:20.608Z,95293.13
2023-01-12T03:07:50.151Z,95296.69
2023-01-12T03:10:40.795Z,95297.06
2023-01-12T03:13:11.357Z,95298.91
2023-01-12T03:15:42.260Z,95302.44
2023-01-12T03:18:15.856Z,95296.22
2023-01-12T03:20:47.593Z,95280.06
2023-01-12T03:23:18.248Z,95281.91
2023-01-12T03:25:46.300Z,95274.66
2023-01-12T03:28:15.819Z,95266.59
2023-01-12T03:30:45.848Z,95258.50
2023-01-12T03:33:14.826Z,95277.59
2023-01-12T03:35:48.270Z,95273.03
2023-01-12T03:38:21.007Z,95286.09
2023-01-12T03:40:51.404Z,95278.41
2023-01-12T03:43:23.316Z,95275.97
2023-01-12T03:45:54.626Z,95282.16
2023-01-12T03:48:27.357Z,95276.78
2023-01-12T03:50:59.623Z,95275.97
2023-01-12T03:53:27.692Z,95276.97
2023-01-12T03:55:57.498Z,95265.56
2023-01-12T03:58:25.554Z,95262.88
2023-01-12T04:00:53.316Z,95263.91
2023-01-12T04:03:21.104Z,95263.06
2023-01-12T04:05:50.070Z,95267.84
2023-01-12T04:08:17.971Z,95267.19
2023-01-12T04:10:45.653Z,95264.69
2023-01-12T04:13:12.332Z,95260.97
2023-01-12T04:15:42.559Z,95255.38
2023-01-12T04:18:10.375Z,95256.44
2023-01-12T04:20:38.586Z,95249.38
2023-01-12T04:23:07.330Z,95249.38
2023-01-12T04:25:35.535Z,95256.00
2023-01-12T04:28:03.614Z,95250.81
2023-01-12T04:30:32.431Z,95250.63
2023-01-12T04:33:01.249Z,95252.25
2023-01-12T04:35:28.888Z,95239.44
2023-01-12T04:37:56.728Z,95246.88
2023-01-12T04:40:26.193Z,95242.78
2023-01-12T04:43:07.975Z,95254.38
2023-01-12T04:45:37.903Z,95252.69
2023-01-12T04:48:07.286Z,95250.25
2023-01-12T04:50:34.992Z,95238.66
2023-01-12T04:53:03.198Z,95246.50
2023-01-12T04:55:32.414Z,95246.09
2023-01-12T04:57:59.988Z,95244.03
2023-01-12T05:00:27.631Z,95245.72
2023-01-12T05:02:58.149Z,95254.81
2023-01-12T05:05:25.857Z,95248.66
2023-01-12T05:08:11.169Z,95250.91
2023-01-12T05:10:40.420Z,95245.72
2023-01-12T05:13:08.022Z,95250.06
2023-01-12T05:15:35.654Z,95236.41
2023-01-12T05:18:03.262Z,95248.25
2023-01-12T05:20:30.903Z,95243.25
2023-01-12T05:22:58.535Z,95235.19
2023-01-12T05:25:26.783Z,95234.78
2023-01-12T05:27:57.821Z,95230.63
2023-01-12T05:30:26.457Z,95238.69
2023-01-12T05:32:54.088Z,95245.09
2023-01-12T05:36:41.859Z,95250.94
2023-01-12T05:39:09.446Z,95254.91
2023-01-12T05:41:37.066Z,95251.19
2023-01-12T05:44:05.485Z,95245.81
2023-01-12T05:46:33.445Z,95243.75
2023-01-12T05:49:01.058Z,95237.53
2023-01-12T05:51:30.848Z,95241.81
2023-01-12T05:53:58.500Z,95241.81
2023-01-12T05:56:27.583Z,95243.13
2023-01-12T05:58:57.078Z,95243.13
2023-01-12T06:01:26.757Z,95235.84
2023-01-12T06:03:55.855Z,95243.13
2023-01-12T06:06:25.854Z,95235.03
2023-01-12T06:08:54.505Z,95239.97
2023-01-12T06:11:39.979Z,95234.13
2023-01-12T06:14:07.965Z,95230.88
2023-01-12T06:16:38.302Z,95231.69
2023-01-12T06:19:05.956Z,95227.34
2023-01-12T06:21:34.571Z,95234.19
2023-01-12T06:24:02.527Z,95232.16
2023-01-12T06:26:30.212Z,95228.22
2023-01-12T06:28:57.981Z,95235.69
2023-01-12T06:31:25.599Z,95237.81
2023-01-12T06:33:54.642Z,95240.50
2023-01-12T06:36:22.317Z,95254.78
2023-01-12T06:38:50.123Z,95251.91
2023-01-12T06:41:31.759Z,95255.63
2023-01-12T06:44:00.097Z,95252.91
2023-01-12T06:46:28.750Z,95252.50
2023-01-12T06:48:58.407Z,95248.59
2023-01-12T06:51:26.741Z,95253.59
2023-01-12T06:53:54.458Z,95260.00
2023-01-12T06:56:22.320Z,95257.91
2023-01-12T06:58:49.972Z,95255.84
2023-01-12T07:01:18.235Z,95258.53
2023-01-12T07:03:46.686Z,95260.22
2023-01-12T07:06:16.654Z,95257.53
2023-01-12T07:08:44.535Z,95260.84
2023-01-12T07:11:15.246Z,95262.53
2023-01-12T07:13:42.908Z,95254.25
2023-01-12T07:16:11.357Z,95258.38
2023-01-12T07:18:39.209Z,95254.69
2023-01-12T07:21:07.994Z,95262.13
2023-01-12T07:23:37.886Z,95257.56
2023-01-12T07:26:05.880Z,95258.38
2023-01-12T07:28:34.401Z,95253.00
2023-01-12T07:31:03.007Z,95244.50
2023-01-12T07:33:30.786Z,95244.91
2023-01-12T07:35:59.748Z,95241.63
2023-01-12T07:38:27.380Z,95248.09
2023-01-12T07:40:59.232Z,95247.50
2023-01-12T07:43:26.878Z,95242.72
2023-01-12T07:45:56.803Z,95240.88
2023-01-12T07:48:25.006Z,95244.81
2023-01-12T07:50:52.897Z,95243.59
2023-01-12T07:53:20.601Z,95240.31
2023-01-12T07:55:48.178Z,95226.22
2023-01-12T07:58:17.319Z,95224.16
2023-01-12T08:00:45.070Z,95216.94
2023-01-12T08:03:13.970Z,95212.97
2023-01-12T08:05:41.778Z,95205.97
2023-01-12T08:08:09.613Z,95206.41
2023-01-12T08:10:37.544Z,95206.44
2023-01-12T08:13:05.270Z,95196.88
2023-01-12T08:15:38.631Z,95187.78
2023-01-12T08:18:09.820Z,95181.59
2023-01-12T08:20:37.850Z,95174.94
2023-01-12T08:23:10.146Z,95183.22
2023-01-12T08:25:44.419Z,95169.31
2023-01-12T08:28:15.290Z,95175.53
2023-01-12T08:30:46.368Z,95191.94
2023-01-12T08:33:14.841Z,95182.00
2023-01-12T08:35:42.844Z,95183.41
2023-01-12T08:38:10.729Z,95185.50
2023-01-12T08:40:55.979Z,95190.28
2023-01-12T08:43:37.572Z,95187.78
2023-01-12T08:46:08.780Z,95181.94
2023-01-12T08:48:36.553Z,95195.66
2023-01-12T08:51:04.263Z,95190.66
2023-01-12T08:53:32.096Z,95196.47
2023-01-12T08:55:59.702Z,95196.66
2023-01-12T08:58:27.331Z,95191.88
2023-01-12T09:00:55.095Z,95193.13
2023-01-12T09:03:24.260Z,95190.59
2023-01-12T09:05:51.864Z,95197.72
2023-01-12T09:08:19.533Z,95186.44
2023-01-12T09:10:47.165Z,95189.38
2023-01-12T09:13:15.927Z,95193.69
2023-01-12T09:15:56.454Z,95189.94
2023-01-12T09:18:32.831Z,95196.75
2023-01-12T09:21:02.476Z,95187.38
2023-01-12T09:23:30.465Z,95181.09
2023-01-12T09:25:58.183Z,95182.31
2023-01-12T09:28:25.738Z,95194.34
2023-01-12T09:30:53.351Z,95180.19
2023-01-12T09:33:24.033Z,95183.28
2023-01-12T09:35:53.084Z,95185.94
2023-01-12T09:38:20.690Z,95184.69
2023-01-12T09:40:48.283Z,95184.88
2023-01-12T09:43:33.679Z,95185.28
2023-01-12T09:46:19.107Z,95189.84
2023-01-12T09:48:46.790Z,95182.94
2023-01-12T09:51:22.592Z,95190.03
2023-01-12T09:53:50.278Z,95177.72
2023-01-12T09:56:22.901Z,95175.63
2023-01-12T09:59:12.366Z,95160.22
2023-01-12T10:01:40.123Z,95164.13
2023-01-12T10:04:07.923Z,95157.69
2023-01-12T10:06:37.503Z,95145.13
2023-01-12T10:09:07.155Z,95148.84
2023-01-12T10:11:39.294Z,95146.91
2023-01-12T10:14:21.665Z,95156.28
2023-01-12T10:16:58.310Z,95163.28
2023-01-12T10:19:29.951Z,95150.75
2023-01-12T10:21:59.061Z,95153.84
2023-01-12T10:24:27.179Z,95168.56
2023-01-12T10:26:59.534Z,95141.22
2023-01-12T10:29:27.181Z,95145.53
2023-01-12T10:31:54.833Z,95134.84
2023-01-12T10:34:22.776Z,95136.25
2023-01-12T10:36:53.869Z,95140.41
2023-01-12T10:39:31.280Z,95143.50
2023-01-12T10:42:36.826Z,95133.25
2023-01-12T10:45:16.251Z,95127.38
2023-01-12T10:47:45.005Z,95120.69
2023-01-12T10:50:21.664Z,95110.22
2023-01-12T10:52:50.827Z,95107.53
2023-01-12T10:55:21.192Z,95118.50
2023-01-12T10:57:49.747Z,95116.41
2023-01-12T11:00:22.018Z,95120.06
2023-01-12T11:02:49.902Z,95112.78
2023-01-12T11:05:35.090Z,95122.13
2023-01-12T11:08:03.114Z,95113.53
2023-01-12T11:10:35.690Z,95108.47
2023-01-12T11:13:05.594Z,95102.38
2023-01-12T11:15:39.060Z,95103.19
2023-01-12T11:18:26.083Z,95106.06
2023-01-12T11:20:56.945Z,95107.72
2023-01-12T11:23:31.249Z,95107.03
2023-01-12T11:26:01.758Z,95112.59
2023-01-12T11:28:33.469Z,95100.94
2023-01-12T11:31:03.646Z,95103.41
2023-01-12T11:33:34.030Z,95097.16
2023-01-12T11:36:04.695Z,95092.53
2023-01-12T11:38:36.295Z,95106.72
2023-01-12T11:41:09.714Z,95092.94
2023-01-12T11:43:49.254Z,95092.09
2023-01-12T11:46:22.919Z,95093.97
2023-01-12T11:48:57.655Z,95086.66
2023-01-12T11:51:25.379Z,95091.63
2023-01-12T11:53:53.049Z,95096.84
2023-01-12T11:56:30.154Z,95080.31
2023-01-12T11:59:03.111Z,95092.84
2023-01-12T12:01:35.699Z,95079.38
2023-01-12T12:04:23.380Z,95076.44
2023-01-12T12:07:13.159Z,95071.69
2023-01-12T12:09:51.238Z,95088.34
2023-01-12T12:12:24.965Z,95089.84
2023-01-12T12:15:05.656Z,95086.44
2023-01-12T12:17:41.800Z,95091.19
2023-01-12T12:20:16.243Z,95091.63
2023-01-12T12:22:56.633Z,95079.59
2023-01-12T12:25:30.133Z,95074.19
2023-01-12T12:28:19.220Z,95077.47
2023-01-12T12:31:02.710Z,95058.34
2023-01-12T12:33:38.142Z,95058.00
2023-01-12T12:36:15.280Z,95043.44
2023-01-12T12:39:07.250Z,95052.03
2023-01-12T12:41:56.297Z,95052.28
2023-01-12T12:44:57.205Z,95047.31
2023-01-12T12:47:35.028Z,95039.78
2023-01-12T12:50:04.311Z,95053.94
2023-01-12T12:52:33.456Z,95049.56
2023-01-12T12:55:01.301Z,95042.72
2023-01-12T12:57:29.185Z,95049.94
2023-01-12T12:59:59.739Z,95057.84
2023-01-12T13:02:54.428Z,95044.06
2023-01-12T13:05:40.791Z,95048.50
2023-01-12T13:08:18.594Z,95047.59
2023-01-12T13:10:52.374Z,95047.59
2023-01-12T13:13:31.957Z,95039.09
2023-01-12T13:16:39.192Z,95038.63
2023-01-12T13:19:17.352Z,95044.88
2023-01-12T13:21:58.019Z,95052.56
2023-01-12T13:24:39.025Z,95038.63
2023-01-12T13:27:47.589Z,95038.63
2023-01-12T13:30:24.015Z,95033.34
2023-01-12T13:32:58.442Z,95035.34
2023-01-12T13:36:10.150Z,95039.38
2023-01-12T13:39:07.246Z,95031.13
2023-01-12T13:41:53.707Z,95042.22
2023-01-12T13:44:25.168Z,95040.78
2023-01-12T13:46:56.574Z,95037.69
2023-01-12T13:49:28.265Z,95033.72
2023-01-12T13:51:59.216Z,95032.88
2023-01-12T13:54:28.851Z,95036.66
2023-01-12T13:56:59.816Z,95030.72
2023-01-12T13:59:29.933Z,95054.06
2023-01-12T14:01:58.154Z,95056.19
2023-01-12T14:04:37.643Z,95049.72
2023-01-12T14:07:11.745Z,95046.03
2023-01-12T14:09:47.896Z,95056.41
2023-01-12T14:12:31.562Z,95052.28
2023-01-12T14:15:52.755Z,95059.00
2023-01-12T14:18:21.605Z,95069.84
2023-01-12T14:20:50.779Z,95059.22
2023-01-12T14:23:21.990Z,95061.06
2023-01-12T14:26:07.781Z,95054.19
2023-01-12T14:28:35.951Z,95053.38
2023-01-12T14:31:04.429Z,95050.88
2023-01-12T14:33:34.577Z,95043.78
2023-01-12T14:36:05.088Z,95051.13
2023-01-12T14:38:34.230Z,95033.66
2023-01-12T14:41:04.023Z,95035.38
2023-01-12T14:43:52.216Z,95029.72
2023-01-12T14:46:28.279Z,95026.66
2023-01-12T14:48:57.937Z,95018.97
2023-01-12T14:51:29.156Z,95020.72
2023-01-12T14:53:59.242Z,95011.59
2023-01-12T14:56:29.654Z,95008.66
2023-01-12T14:59:08.993Z,95016.44
2023-01-12T15:01:38.759Z,95008.88
2023-01-12T15:04:08.296Z,95006.19
2023-01-12T15:06:39.878Z,95009.13
2023-01-12T15:09:10.983Z,95010.41
2023-01-12T15:11:39.315Z,95012.06
2023-01-12T15:14:21.975Z,95011.31
2023-01-12T15:17:07.362Z,95012.38
2023-01-12T15:19:52.816Z,95014.25
2023-01-12T15:22:41.377Z,95021.56
2023-01-12T15:25:31.346Z,95015.75
2023-01-12T15:27:58.911Z,95018.47
2023-01-12T15:30:27.906Z,95010.56
2023-01-12T15:32:56.276Z,95007.50
2023-01-12T15:35:25.466Z,95009.19
2023-01-12T15:37:55.012Z,95009.66
2023-01-12T15:40:23.260Z,95009.91
2023-01-12T15:42:53.337Z,95016.72
2023-01-12T15:45:30.986Z,95018.25
2023-01-12T15:47:58.605Z,95019.88
2023-01-12T15:50:26.262Z,95015.53
2023-01-12T15:52:54.050Z,95023.66
2023-01-12T15:55:22.824Z,95018.69
2023-01-12T15:57:52.272Z,95028.31
2023-01-12T16:00:21.757Z,95032.09
2023-01-12T16:02:51.789Z,95032.31
2023-01-12T16:05:21.443Z,95037.94
2023-01-12T16:07:49.295Z,95022.72
2023-01-12T16:10:17.931Z,95029.66
2023-01-12T16:12:45.906Z,95022.56
2023-01-12T16:15:16.992Z,95029.28
2023-01-12T16:17:44.788Z,95010.56
2023-01-12T16:20:16.072Z,95023.09
2023-01-12T16:22:44.002Z,95014.59
2023-01-12T16:25:11.938Z,95025.63
2023-01-12T16:27:39.665Z,95014.44
2023-01-12T16:30:09.856Z,95015.25
2023-01-12T16:32:37.548Z,95009.84
2023-01-12T16:35:05.725Z,95005.28
2023-01-12T16:37:35.476Z,95016.09
2023-01-12T16:40:03.220Z,95000.69
2023-01-12T16:42:30.837Z,95006.31
2023-01-12T16:44:59.073Z,95001.56
2023-01-12T16:47:26.709Z,95005.34
2023-01-12T16:49:54.347Z,95006.16
2023-01-12T16:52:22.915Z,95006.16
2023-01-12T16:54:51.931Z,95008.63
2023-01-12T16:57:20.104Z,95007.34
2023-01-12T16:59:49.596Z,95004.03
2023-01-12T17:02:19.119Z,94995.31
2023-01-12T17:04:48.997Z,94998.03
2023-01-12T17:07:16.768Z,94989.53
2023-01-12T17:09:44.903Z,95000.97
2023-01-12T17:12:14.128Z,94999.28
2023-01-12T17:14:41.990Z,94992.47
2023-01-12T17:17:12.058Z,94990.19
2023-01-12T17:19:42.911Z,94992.91
2023-01-12T17:22:11.380Z,94993.72
2023-01-12T17:24:40.599Z,94992.47
2023-01-12T17:27:09.301Z,94992.03
2023-01-12T17:29:38.504Z,94994.88
2023-01-12T17:32:07.937Z,94999.06
2023-01-12T17:34:37.113Z,94991.16
2023-01-12T17:37:08.205Z,94991.66
2023-01-12T17:39:36.564Z,94977.91
2023-01-12T17:42:22.316Z,94985.38
2023-01-12T17:44:51.463Z,94975.00
2023-01-12T17:47:19.160Z,94972.53
2023-01-12T17:49:47.812Z,94972.75
2023-01-12T17:52:15.514Z,94955.47
2023-01-12T17:54:43.142Z,94962.75
2023-01-12T17:57:10.777Z,94959.22
2023-01-12T17:59:38.455Z,94955.91
2023-01-12T18:02:07.899Z,94953.03
2023-01-12T18:04:35.660Z,94949.94
2023-01-12T18:07:03.358Z,94951.03
2023-01-12T18:09:31.248Z,94953.31
2023-01-12T18:12:00.266Z,94944.00
2023-01-12T18:14:28.129Z,94945.69
2023-01-12T18:16:55.735Z,94947.31
2023-01-12T18:19:24.666Z,94946.72
2023-01-12T18:21:52.240Z,94951.69
2023-01-12T18:24:19.853Z,94942.13
2023-01-12T18:26:48.121Z,94940.25
2023-01-12T18:29:15.768Z,94938.59
2023-01-12T18:31:47.239Z,94936.13
2023-01-12T18:34:16.467Z,94939.03
2023-01-12T18:36:45.574Z,94935.50
2023-01-12T18:39:15.965Z,94929.03
2023-01-12T18:42:01.252Z,94916.19
2023-01-12T18:44:29.100Z,94919.50
2023-01-12T18:47:16.575Z,94917.41
2023-01-12T18:49:45.806Z,94918.44
2023-01-12T18:52:32.510Z,94918.69
2023-01-12T18:55:00.207Z,94917.25
2023-01-12T18:57:29.778Z,94912.28
2023-01-12T19:00:00.336Z,94909.78
2023-01-12T19:02:29.809Z,94905.66
2023-01-12T19:05:16.607Z,94904.81
2023-01-12T19:08:03.792Z,94904.44
2023-01-12T19:10:31.639Z,94894.06
2023-01-12T19:13:13.493Z,94896.16
2023-01-12T19:15:59.729Z,94894.53
2023-01-12T19:18:27.959Z,94885.56
2023-01-12T19:21:15.702Z,94887.47
2023-01-12T19:24:02.361Z,94884.16
2023-01-12T19:26:47.640Z,94875.66
2023-01-12T19:29:15.221Z,94883.38
2023-01-12T19:31:42.911Z,94877.97
2023-01-12T19:34:10.713Z,94879.03
2023-01-12T19:36:38.283Z,94872.78
2023-01-12T19:39:07.736Z,94887.72
2023-01-12T19:41:52.937Z,94876.91
2023-01-12T19:44:20.964Z,94881.50
2023-01-12T19:46:48.798Z,94883.13
2023-01-12T19:49:17.853Z,94876.31
2023-01-12T19:51:50.964Z,94878.19
2023-01-12T19:54:24.395Z,94863.91
2023-01-12T19:56:53.301Z,94857.06
2023-01-12T19:59:22.075Z,94849.19
2023-01-12T20:01:51.362Z,94850.44
2023-01-12T20:04:20.692Z,94856.66
2023-01-12T20:06:55.768Z,94847.13
2023-01-12T20:09:46.779Z,94849.69
2023-01-12T20:12:14.863Z,94855.94
2023-01-12T20:14:42.483Z,94843.47
2023-01-12T20:17:10.860Z,94846.00
2023-01-12T20:19:38.490Z,94836.25
2023-01-12T20:22:06.076Z,94839.59
2023-01-12T20:24:34.997Z,94840.25
2023-01-12T20:27:02.728Z,94844.03
2023-01-12T20:29:30.338Z,94835.28
2023-01-12T20:31:57.956Z,94833.66
2023-01-12T20:34:25.571Z,94841.97
2023-01-12T20:36:53.147Z,94841.16
2023-01-12T20:39:20.866Z,94831.78
2023-01-12T20:41:50.171Z,94832.84
2023-01-12T20:44:19.377Z,94819.06
2023-01-12T20:46:47.341Z,94825.34
2023-01-12T20:49:15.186Z,94821.78
2023-01-12T20:51:42.807Z,94819.88
2023-01-12T20:54:11.021Z,94814.84
2023-01-12T20:56:38.705Z,94810.25
2023-01-12T20:59:07.810Z,94822.91
2023-01-12T21:01:35.782Z,94822.47
2023-01-12T21:04:04.474Z,94825.16
2023-01-12T21:06:32.452Z,94827.66
2023-01-12T21:09:00.048Z,94821.00
2023-01-12T21:11:27.716Z,94820.34
2023-01-12T21:13:57.164Z,94825.97
2023-01-12T21:16:26.158Z,94832.66
2023-01-12T21:18:53.721Z,94830.91
2023-01-12T21:21:21.284Z,94843.16
2023-01-12T21:23:49.174Z,94840.84
2023-01-12T21:26:16.779Z,94847.47
2023-01-12T21:28:44.345Z,94848.84
2023-01-12T21:31:13.157Z,94843.38
2023-01-12T21:33:42.242Z,94848.94
2023-01-12T21:36:11.712Z,94846.44
2023-01-12T21:38:39.595Z,94858.31
2023-01-12T21:41:07.570Z,94851.41
2023-01-12T21:43:35.636Z,94851.78
2023-01-12T21:46:08.569Z,94850.28
2023-01-12T21:48:36.668Z,94848.19
2023-01-12T21:51:07.672Z,94853.59
2023-01-12T21:53:35.825Z,94847.34
2023-01-12T21:56:04.778Z,94849.03
2023-01-12T21:58:33.959Z,94839.25
2023-01-12T22:01:08.169Z,94835.50
2023-01-12T22:03:35.837Z,94826.94
2023-01-12T22:06:08.125Z,94836.25
2023-01-12T22:08:36.234Z,94836.03
2023-01-12T22:11:08.147Z,94827.84
2023-01-12T22:13:36.400Z,94837.31
2023-01-12T22:16:05.039Z,94843.91
2023-01-12T22:18:32.696Z,94838.06
2023-01-12T22:21:03.443Z,94844.06
2023-01-12T22:23:32.441Z,94847.50
2023-01-12T22:26:02.272Z,94841.06
2023-01-12T22:28:29.983Z,94833.38
2023-01-12T22:30:57.579Z,94823.16
2023-01-12T22:33:25.175Z,94818.81
2023-01-12T22:35:52.835Z,94815.50
2023-01-12T22:38:20.506Z,94816.09
2023-01-12T22:40:49.488Z,94800.69
2023-01-12T22:43:29.392Z,94807.97
2023-01-12T22:45:58.039Z,94810.09
2023-01-12T22:48:26.501Z,94810.69
2023-01-12T22:50:54.754Z,94809.63
2023-01-12T22:53:23.963Z,94812.94
2023-01-12T22:55:53.022Z,94815.66
2023-01-12T22:58:20.620Z,94817.06
2023-01-12T23:00:48.874Z,94817.78
2023-01-12T23:03:16.671Z,94814.88
2023-01-12T23:05:47.734Z,94806.97
2023-01-12T23:08:16.530Z,94816.97
2023-01-12T23:10:45.420Z,94812.38
2023-01-12T23:13:19.677Z,94824.06
2023-01-12T23:15:49.644Z,94816.97
2023-01-12T23:18:19.331Z,94824.28
2023-01-12T23:20:47.757Z,94819.09
2023-01-12T23:23:17.741Z,94817.13
2023-01-12T23:25:46.174Z,94816.06
2023-01-12T23:28:14.736Z,94810.66
2023-01-12T23:30:44.159Z,94813.59
2023-01-12T23:33:12.113Z,94814.41
2023-01-12T23:35:41.519Z,94801.09
2023-01-12T23:38:14.784Z,94789.69
2023-01-12T23:40:42.495Z,94790.50
2023-01-12T23:43:10.268Z,94792.84
2023-01-12T23:45:37.997Z,94788.88
2023-01-12T23:48:08.224Z,94792.63
2023-01-12T23:50:36.119Z,94783.59
2023-01-12T23:53:03.864Z,94784.41
2023-01-12T23:55:31.637Z,94778.31
2023-01-12T23:57:59.453Z,94779.03
